Terminal Aerodrome Forecast
Issued by NWS

Home | Current Version | Previous Version | Text Only | Print | Product List | Glossary On
Versions: 1 2 3 4 5 6 7 8 9 10 11 12 13 14
000
FTUS44 KTSA 230600 AAA
TAFRVS
TAF AMD
KRVS 230610Z 2306/2406 17005KT 5SM BR FEW120
     FM231100 17004KT P6SM VCTS SCT050CB SCT120
     FM231800 36007KT P6SM SCT050 SCT250 PROB30 2318/2324 6SM -TSRA
      BKN035CB
     FM240100 03005KT P6SM FEW250=

USA.gov is the U.S. government's official web portal to all federal, state and local government web resources and services.